Time;durP1;ratioP1;P1;durP2;ratioP2;P2;SDS_P1;SDS_P2;PMS_P1;PMS_P2;Temp;Humidity;BMP_temperature;BMP_pressure;BME280_temperature;BME280_humidity;BME280_pressure;Samples;Min_cycle;Max_cycle;Signal;HPM_P1;HPM_P2
2023/03/31 00:01:51;;;;;;;2.00;1.10;;;;;;;11.26;100.00;98961.53;6225792;22;20611;-83
2023/03/31 00:04:22;;;;;;;1.70;1.10;;;;;;;11.23;100.00;98962.03;6225563;22;20610;-83
2023/03/31 00:06:52;;;;;;;1.47;1.00;;;;;;;11.09;100.00;98966.03;6201705;22;20287;-87
2023/03/31 00:09:23;;;;;;;1.30;1.20;;;;;;;11.05;100.00;98955.00;6226354;22;20243;-84
2023/03/31 00:11:51;;;;;;;1.73;1.07;;;;;;;11.07;100.00;98949.38;6201507;22;20510;-84
2023/03/31 00:14:19;;;;;;;2.77;1.10;;;;;;;11.09;100.00;98953.47;6200676;22;20625;-84
2023/03/31 00:16:46;;;;;;;2.00;1.30;;;;;;;11.14;100.00;98958.91;6200838;22;20164;-82
2023/03/31 00:19:20;;;;;;;2.17;1.23;;;;;;;11.16;100.00;98966.69;6200704;22;20174;-83
2023/03/31 00:21:47;;;;;;;2.30;1.23;;;;;;;11.19;100.00;98955.53;6225731;22;20617;-85
2023/03/31 00:24:15;;;;;;;2.90;1.50;;;;;;;11.15;100.00;98955.16;6227195;22;20164;-83
2023/03/31 00:26:42;;;;;;;2.63;1.70;;;;;;;11.37;100.00;98960.69;6227393;22;20187;-82
2023/03/31 00:29:11;;;;;;;2.67;1.40;;;;;;;11.25;100.00;98952.69;6227969;22;20161;-85
2023/03/31 00:31:38;;;;;;;2.90;1.50;;;;;;;11.21;100.00;98948.84;6227546;22;20275;-86
2023/03/31 00:34:06;;;;;;;2.10;1.73;;;;;;;11.26;100.00;98946.28;6252581;22;20172;-84
2023/03/31 00:36:35;;;;;;;3.30;1.60;;;;;;;11.18;100.00;98941.28;6227571;22;20172;-85
2023/03/31 00:39:08;;;;;;;2.10;1.60;;;;;;;11.13;100.00;98949.25;6203332;22;20168;-84
2023/03/31 00:41:37;;;;;;;2.23;1.73;;;;;;;11.35;100.00;98942.13;6203553;22;20251;-85
2023/03/31 00:44:17;;;;;;;3.13;2.00;;;;;;;11.37;100.00;98934.69;6202824;22;20196;-83
2023/03/31 00:46:54;;;;;;;3.17;1.77;;;;;;;11.54;100.00;98937.38;6228594;22;20175;-86
2023/03/31 00:49:23;;;;;;;2.17;1.67;;;;;;;11.57;100.00;98936.88;6227788;22;20187;-83
2023/03/31 00:51:51;;;;;;;2.57;1.70;;;;;;;11.45;100.00;98925.41;6253788;22;20168;-84
2023/03/31 00:54:20;;;;;;;3.37;1.90;;;;;;;11.29;100.00;98929.69;6202755;22;20214;-84
2023/03/31 00:56:48;;;;;;;1.97;1.57;;;;;;;11.16;100.00;98932.66;6203204;22;20225;-87
2023/03/31 00:59:15;;;;;;;2.20;1.60;;;;;;;11.12;100.00;98925.34;6227428;22;20172;-84
2023/03/31 01:01:44;;;;;;;2.50;1.60;;;;;;;10.90;100.00;98935.94;6227774;22;20203;-85
2023/03/31 01:04:13;;;;;;;2.63;1.60;;;;;;;10.81;100.00;98926.63;6227108;22;20168;-84
2023/03/31 01:06:49;;;;;;;3.43;1.97;;;;;;;10.76;100.00;98919.31;6227600;22;20696;-84
2023/03/31 01:09:15;;;;;;;1.83;1.57;;;;;;;10.73;100.00;98917.09;6203246;22;20160;-84
2023/03/31 01:11:45;;;;;;;2.20;1.67;;;;;;;10.69;100.00;98925.84;6202918;22;20195;-84
2023/03/31 01:14:12;;;;;;;2.20;1.70;;;;;;;10.54;100.00;98927.16;6202481;22;20637;-86
2023/03/31 01:16:38;;;;;;;3.17;1.97;;;;;;;10.53;100.00;98928.22;6202464;22;20247;-85
2023/03/31 01:19:11;;;;;;;1.90;1.80;;;;;;;10.41;100.00;98926.59;6202536;22;20176;-85
2023/03/31 01:21:52;;;;;;;2.93;1.93;;;;;;;10.35;100.00;98925.69;6228037;22;20161;-84
2023/03/31 01:24:34;;;;;;;3.30;1.80;;;;;;;10.25;100.00;98922.78;6227452;22;20164;-85
2023/03/31 01:27:45;;;;;;;2.80;2.30;;;;;;;10.20;100.00;98925.34;6227197;22;20192;-86
2023/03/31 01:30:33;;;;;;;5.07;3.27;;;;;;;10.11;100.00;98919.53;6226949;22;20623;-86
2023/03/31 01:33:13;;;;;;;4.93;3.90;;;;;;;10.00;100.00;98922.19;6257537;22;20168;-86
2023/03/31 01:36:12;;;;;;;5.83;4.73;;;;;;;9.89;100.00;98915.00;6256939;22;20166;-85
2023/03/31 01:39:06;;;;;;;4.87;3.73;;;;;;;9.71;100.00;98919.38;6257145;22;20645;-83
2023/03/31 01:42:01;;;;;;;5.87;4.50;;;;;;;9.62;100.00;98912.72;6257320;22;20163;-85
2023/03/31 01:44:43;;;;;;;10.57;7.33;;;;;;;9.47;100.00;98908.88;6232243;22;20585;-85
2023/03/31 01:47:21;;;;;;;5.70;4.63;;;;;;;9.32;100.00;98901.31;6282956;22;20187;-83
2023/03/31 01:50:02;;;;;;;5.27;4.17;;;;;;;9.21;100.00;98897.53;6233592;22;20171;-85
2023/03/31 01:52:55;;;;;;;13.93;8.47;;;;;;;9.12;100.00;98900.75;6257418;22;20163;-84
2023/03/31 01:55:24;;;;;;;21.37;14.00;;;;;;;9.04;100.00;98899.25;6254577;22;20514;-83
2023/03/31 01:57:59;;;;;;;9.67;7.70;;;;;;;8.91;100.00;98894.09;6233305;22;20156;-84
2023/03/31 02:00:32;;;;;;;19.87;12.03;;;;;;;8.89;100.00;98888.16;6257225;22;20582;-85
2023/03/31 02:03:11;;;;;;;5.80;5.20;;;;;;;8.76;100.00;98883.81;6232158;22;20647;-85
2023/03/31 02:05:49;;;;;;;7.97;5.30;;;;;;;8.62;100.00;98879.69;6231652;22;20655;-84
2023/03/31 02:08:21;;;;;;;5.20;3.20;;;;;;;8.62;100.00;98878.84;6232052;22;20186;-83
2023/03/31 02:10:50;;;;;;;3.23;2.93;;;;;;;8.45;100.00;98873.28;6232458;22;20189;-87
2023/03/31 02:13:17;;;;;;;2.60;2.30;;;;;;;8.39;100.00;98879.56;6232047;22;20198;-87
2023/03/31 02:15:47;;;;;;;2.93;2.23;;;;;;;8.31;100.00;98871.81;6232005;22;20167;-87
2023/03/31 02:18:17;;;;;;;2.87;2.27;;;;;;;8.24;100.00;98866.53;6257210;22;20160;-86
2023/03/31 02:20:47;;;;;;;2.20;2.00;;;;;;;8.13;100.00;98871.78;6257650;22;20163;-84
2023/03/31 02:23:16;;;;;;;2.00;1.80;;;;;;;8.04;100.00;98875.78;6232200;22;20168;-84
2023/03/31 02:25:50;;;;;;;2.90;1.90;;;;;;;7.97;100.00;98871.38;6231870;22;20637;-86
2023/03/31 02:28:22;;;;;;;2.23;1.80;;;;;;;7.90;100.00;98861.78;6232149;22;20650;-85
2023/03/31 02:31:14;;;;;;;2.50;1.90;;;;;;;7.88;100.00;98854.03;6257075;22;20219;-84
2023/03/31 02:33:41;;;;;;;1.90;1.80;;;;;;;8.00;100.00;98853.25;6257209;22;20160;-88
2023/03/31 02:36:07;;;;;;;2.70;2.27;;;;;;;8.12;100.00;98851.50;6231783;22;20163;-85
2023/03/31 02:38:40;;;;;;;2.80;2.00;;;;;;;8.01;100.00;98846.91;6257124;22;20168;-85
2023/03/31 02:41:07;;;;;;;4.17;2.17;;;;;;;7.94;100.00;98839.78;6231518;22;20160;-86
2023/03/31 02:43:34;;;;;;;2.20;2.00;;;;;;;7.92;100.00;98830.38;6231969;22;20674;-88
2023/03/31 02:46:01;;;;;;;2.87;2.03;;;;;;;7.97;100.00;98825.19;6256932;22;20247;-85
2023/03/31 02:48:49;;;;;;;3.20;2.10;;;;;;;7.90;100.00;98830.59;6232592;22;20213;-87
2023/03/31 02:51:41;;;;;;;5.90;3.60;;;;;;;8.02;100.00;98821.88;6232405;22;20668;-87
2023/03/31 02:54:22;;;;;;;6.37;4.27;;;;;;;8.09;100.00;98825.25;6256848;22;20190;-84
2023/03/31 02:57:24;;;;;;;5.20;4.00;;;;;;;8.09;100.00;98822.59;6258890;22;20163;-86
2023/03/31 03:00:13;;;;;;;9.63;6.57;;;;;;;8.06;100.00;98823.88;6256624;22;20171;-85
2023/03/31 03:03:20;;;;;;;5.50;3.80;;;;;;;8.12;100.00;98828.28;6282050;22;20172;-85
2023/03/31 03:05:53;;;;;;;5.03;2.57;;;;;;;8.02;100.00;98821.88;6257275;22;20190;-85
2023/03/31 03:09:11;;;;;;;2.83;2.27;;;;;;;7.86;100.00;98810.75;6245110;22;20517;-87
2023/03/31 03:11:50;;;;;;;2.70;2.30;;;;;;;7.82;100.00;98820.22;6257467;22;20189;-86
2023/03/31 03:14:29;;;;;;;4.60;2.57;;;;;;;7.70;100.00;98827.31;6283775;22;20148;-86
2023/03/31 03:17:09;;;;;;;2.73;2.40;;;;;;;7.70;100.00;98827.31;6283024;22;20167;-85
2023/03/31 03:19:36;;;;;;;3.37;2.60;;;;;;;7.73;100.00;98832.22;6257443;22;20179;-86
2023/03/31 03:22:03;;;;;;;3.37;2.70;;;;;;;7.58;100.00;98831.75;6240544;22;20636;-86
2023/03/31 03:24:33;;;;;;;5.77;3.10;;;;;;;7.51;100.00;98831.78;6251227;22;20238;-85
2023/03/31 03:27:00;;;;;;;9.07;7.13;;;;;;;7.40;100.00;98834.38;6257996;22;20191;-86
2023/03/31 03:29:27;;;;;;;5.67;4.47;;;;;;;7.36;100.00;98823.34;6232436;22;20175;-85
2023/03/31 03:31:54;;;;;;;7.83;5.10;;;;;;;7.23;100.00;98823.44;6237659;22;20200;-86
2023/03/31 03:34:21;;;;;;;7.33;5.73;;;;;;;7.18;100.00;98809.16;6227393;22;20160;-86
2023/03/31 03:36:47;;;;;;;7.73;5.63;;;;;;;7.22;100.00;98807.69;6226611;22;20637;-86
2023/03/31 03:39:14;;;;;;;5.20;4.07;;;;;;;7.16;100.00;98800.53;6226815;22;20164;-87
2023/03/31 03:41:41;;;;;;;6.53;5.20;;;;;;;7.14;100.00;98805.28;6202296;22;20276;-87
2023/03/31 03:44:08;;;;;;;7.60;5.37;;;;;;;7.07;100.00;98802.66;6253028;22;20239;-86
2023/03/31 03:46:34;;;;;;;8.47;5.00;;;;;;;7.05;100.00;98797.53;6252005;22;20187;-86
2023/03/31 03:49:01;;;;;;;4.57;3.63;;;;;;;6.94;100.00;98792.94;6226414;22;20172;-86
2023/03/31 03:51:28;;;;;;;3.70;2.80;;;;;;;6.90;100.00;98802.41;6201572;22;20169;-86
2023/03/31 03:53:55;;;;;;;4.53;3.00;;;;;;;6.86;100.00;98798.50;6201616;22;20198;-85
2023/03/31 03:56:21;;;;;;;3.87;2.80;;;;;;;6.78;100.00;98809.44;6201284;22;20165;-87
2023/03/31 03:58:49;;;;;;;4.10;2.67;;;;;;;6.78;100.00;98804.09;6202946;22;20168;-86
2023/03/31 04:01:17;;;;;;;3.20;2.47;;;;;;;6.74;100.00;98818.06;6203812;22;20182;-85
2023/03/31 04:03:44;;;;;;;4.03;3.00;;;;;;;6.72;100.00;98809.50;6203861;22;20668;-86
2023/03/31 04:06:10;;;;;;;3.23;2.70;;;;;;;6.63;100.00;98814.22;6203779;22;20699;-86
2023/03/31 04:08:37;;;;;;;4.23;3.00;;;;;;;6.57;100.00;98802.59;6228330;22;20207;-83
2023/03/31 04:11:12;;;;;;;4.60;2.90;;;;;;;6.53;100.00;98803.25;6228426;22;20270;-85
2023/03/31 04:13:40;;;;;;;4.70;2.77;;;;;;;6.46;100.00;98800.63;6204491;22;20165;-86
2023/03/31 04:16:07;;;;;;;4.53;2.90;;;;;;;6.32;100.00;98796.38;6228661;22;20170;-86
2023/03/31 04:18:36;;;;;;;2.90;2.60;;;;;;;6.32;100.00;98785.75;6203679;22;20669;-85
2023/03/31 04:21:02;;;;;;;4.33;2.87;;;;;;;6.30;100.00;98792.31;6204678;22;20164;-86
2023/03/31 04:23:45;;;;;;;4.80;2.80;;;;;;;6.25;100.00;98789.47;6204390;22;20164;-87
2023/03/31 04:26:13;;;;;;;3.23;2.70;;;;;;;6.20;100.00;98784.81;6206246;22;20196;-84
2023/03/31 04:28:41;;;;;;;3.93;2.77;;;;;;;6.14;100.00;98783.78;6204172;22;20233;-90
2023/03/31 04:31:09;;;;;;;6.10;2.90;;;;;;;6.12;100.00;98780.50;6208817;22;20684;-86
2023/03/31 04:33:39;;;;;;;3.63;2.70;;;;;;;6.14;100.00;98778.47;6229103;22;20164;-87
2023/03/31 04:36:24;;;;;;;3.70;2.70;;;;;;;6.19;100.00;98778.66;6206227;22;20164;-86
2023/03/31 04:38:53;;;;;;;4.83;2.73;;;;;;;6.26;100.00;98772.47;6233660;22;20171;-86
2023/03/31 04:41:26;;;;;;;3.50;2.60;;;;;;;6.36;100.00;98767.50;6205995;22;20172;-87
2023/03/31 04:43:53;;;;;;;3.80;2.90;;;;;;;6.41;100.00;98762.38;6255565;22;20188;-85
2023/03/31 04:46:24;;;;;;;4.37;2.77;;;;;;;6.53;100.00;98750.81;6230268;22;20164;-87
2023/03/31 04:49:10;;;;;;;3.13;2.60;;;;;;;6.63;100.00;98745.84;6233598;22;20200;-88
2023/03/31 04:51:37;;;;;;;11.40;7.27;;;;;;;6.75;100.00;98731.84;6229290;22;20226;-86
2023/03/31 04:54:06;;;;;;;10.93;8.63;;;;;;;6.83;100.00;98735.06;6204982;22;20165;-86
2023/03/31 04:56:33;;;;;;;5.23;3.50;;;;;;;6.95;100.00;98733.31;6204229;22;20625;-86
2023/03/31 04:59:00;;;;;;;4.10;2.60;;;;;;;7.03;100.00;98735.72;6254405;22;20192;-86
2023/03/31 05:01:26;;;;;;;3.50;2.70;;;;;;;7.18;100.00;98745.22;6204230;22;20172;-85
2023/03/31 05:03:53;;;;;;;3.77;2.63;;;;;;;7.23;100.00;98735.50;6229035;22;20168;-86
2023/03/31 05:06:20;;;;;;;2.90;2.40;;;;;;;7.35;100.00;98732.94;6229137;22;20613;-87
2023/03/31 05:08:47;;;;;;;4.13;2.70;;;;;;;7.44;100.00;98739.63;6204128;22;20192;-87
2023/03/31 05:11:14;;;;;;;2.70;2.40;;;;;;;7.46;100.00;98730.38;6204115;22;20222;-87
2023/03/31 05:13:41;;;;;;;3.40;2.73;;;;;;;7.63;100.00;98735.09;6228838;22;20198;-86
2023/03/31 05:16:09;;;;;;;4.07;2.57;;;;;;;7.82;100.00;98734.88;6229453;22;20173;-84
2023/03/31 05:18:37;;;;;;;4.60;2.30;;;;;;;8.02;100.00;98736.50;6228503;22;20178;-86
2023/03/31 05:21:14;;;;;;;2.63;2.17;;;;;;;8.20;100.00;98745.28;6228203;22;20176;-86
2023/03/31 05:23:41;;;;;;;3.63;2.43;;;;;;;8.38;100.00;98745.28;6202478;22;20251;-85
2023/03/31 05:26:08;;;;;;;4.07;2.27;;;;;;;8.76;100.00;98739.59;6202833;22;20165;-86
2023/03/31 05:28:35;;;;;;;4.73;2.50;;;;;;;8.96;100.00;98738.47;6246815;22;20241;-87
2023/03/31 05:31:03;;;;;;;2.90;2.27;;;;;;;9.19;100.00;98728.56;6239357;22;20736;-85
2023/03/31 05:33:30;;;;;;;3.50;2.30;;;;;;;9.47;100.00;98730.53;6202110;22;20175;-87
2023/03/31 05:35:59;;;;;;;4.50;2.50;;;;;;;9.63;100.00;98724.47;6226115;22;20201;-87
2023/03/31 05:38:30;;;;;;;2.50;2.27;;;;;;;9.84;100.00;98725.72;6227339;22;20168;-86
2023/03/31 05:40:57;;;;;;;4.57;2.30;;;;;;;10.03;100.00;98713.78;6203062;22;20198;-87
2023/03/31 05:43:24;;;;;;;3.43;2.30;;;;;;;10.20;100.00;98713.06;6227428;22;20168;-86
2023/03/31 05:45:51;;;;;;;3.87;2.53;;;;;;;10.19;100.00;98708.75;6202368;22;20168;-86
2023/03/31 05:48:18;;;;;;;2.97;2.20;;;;;;;10.12;100.00;98696.28;6227053;22;20199;-86
2023/03/31 05:50:45;;;;;;;3.33;2.20;;;;;;;10.12;100.00;98704.31;6251655;22;20168;-84
2023/03/31 05:53:11;;;;;;;4.20;2.53;;;;;;;10.20;100.00;98692.47;6225081;22;20196;-86
2023/03/31 05:55:38;;;;;;;5.10;2.40;;;;;;;10.41;100.00;98697.13;6250213;22;20169;-84
2023/03/31 05:58:05;;;;;;;2.60;2.10;;;;;;;10.64;100.00;98690.81;6199917;22;20669;-87
2023/03/31 06:00:32;;;;;;;3.23;2.50;;;;;;;10.74;100.00;98676.78;6199906;22;20172;-86
2023/03/31 06:02:59;;;;;;;3.53;2.47;;;;;;;11.04;100.00;98675.41;6200058;22;20642;-86
2023/03/31 06:05:26;;;;;;;4.40;2.80;;;;;;;11.27;100.00;98669.03;6250234;22;20164;-85
2023/03/31 06:07:54;;;;;;;3.93;2.37;;;;;;;11.51;100.00;98675.00;6227082;22;20180;-85
2023/03/31 06:10:21;;;;;;;2.93;2.40;;;;;;;11.75;100.00;98667.53;6201961;22;20171;-85
2023/03/31 06:12:47;;;;;;;3.40;2.20;;;;;;;11.99;100.00;98668.88;6227072;22;20168;-85
2023/03/31 06:15:14;;;;;;;4.07;2.53;;;;;;;12.07;100.00;98662.25;6225573;22;20619;-85
2023/03/31 06:17:41;;;;;;;5.20;2.50;;;;;;;12.27;100.00;98663.25;6202256;22;20176;-85
2023/03/31 06:20:09;;;;;;;4.33;2.60;;;;;;;12.19;100.00;98650.31;6235793;23;20252;-86
2023/03/31 06:22:49;;;;;;;3.10;2.43;;;;;;;12.15;100.00;98657.25;6229570;22;20160;-87
2023/03/31 06:25:16;;;;;;;2.83;2.20;;;;;;;12.10;100.00;98646.44;6201692;22;20214;-85
2023/03/31 06:27:43;;;;;;;4.70;2.57;;;;;;;12.15;100.00;98651.06;6201636;22;20192;-85
2023/03/31 06:30:10;;;;;;;3.17;2.63;;;;;;;12.40;100.00;98655.88;6201962;22;20207;-85
2023/03/31 06:32:37;;;;;;;2.93;2.37;;;;;;;12.66;100.00;98653.16;6225296;22;20204;-87
2023/03/31 06:35:04;;;;;;;3.17;2.40;;;;;;;12.94;100.00;98643.13;6226783;22;20225;-85
2023/03/31 06:37:31;;;;;;;3.40;2.17;;;;;;;13.21;100.00;98639.31;6201729;22;20169;-84
2023/03/31 06:39:58;;;;;;;2.77;2.20;;;;;;;13.38;100.00;98636.47;6226828;22;20198;-85
2023/03/31 06:42:25;;;;;;;2.90;2.30;;;;;;;13.36;100.00;98645.84;6227017;22;20166;-85
2023/03/31 06:44:51;;;;;;;3.43;2.40;;;;;;;13.34;100.00;98638.06;6226967;22;20173;-85
2023/03/31 06:47:18;;;;;;;4.07;2.60;;;;;;;13.34;100.00;98631.84;6252208;22;20168;-84
2023/03/31 06:49:45;;;;;;;3.00;2.27;;;;;;;13.39;100.00;98634.56;6226722;22;20172;-84
2023/03/31 06:52:12;;;;;;;2.33;1.97;;;;;;;13.35;100.00;98625.38;6226528;22;20207;-84
2023/03/31 06:54:38;;;;;;;5.60;2.50;;;;;;;13.27;100.00;98629.41;6242599;22;20169;-84
2023/03/31 06:57:05;;;;;;;3.60;2.10;;;;;;;13.16;100.00;98619.63;6226353;22;20175;-85
2023/03/31 06:59:32;;;;;;;3.80;2.47;;;;;;;13.11;100.00;98627.69;6251361;22;20173;-85
2023/03/31 07:01:59;;;;;;;4.90;2.63;;;;;;;13.08;100.00;98615.53;6226655;22;20636;-84
2023/03/31 07:04:26;;;;;;;3.40;2.50;;;;;;;13.17;100.00;98600.56;6226377;22;20161;-84
2023/03/31 07:06:53;;;;;;;3.23;2.40;;;;;;;13.45;100.00;98610.09;6226337;22;20166;-84
2023/03/31 07:09:22;;;;;;;3.13;2.57;;;;;;;13.50;100.00;98596.69;6212931;23;20181;-84
2023/03/31 07:11:49;;;;;;;4.47;2.27;;;;;;;13.64;100.00;98597.81;6250228;22;20541;-83
2023/03/31 07:14:16;;;;;;;2.83;2.50;;;;;;;13.73;100.00;98597.28;6226600;22;20165;-85
2023/03/31 07:16:43;;;;;;;4.97;2.70;;;;;;;13.91;100.00;98589.53;6226596;22;20223;-84
2023/03/31 07:19:10;;;;;;;5.33;2.77;;;;;;;14.05;100.00;98590.63;6201872;22;20170;-85
2023/03/31 07:21:36;;;;;;;3.03;2.40;;;;;;;14.45;100.00;98587.22;6226233;22;20174;-84
2023/03/31 07:24:03;;;;;;;3.00;2.70;;;;;;;14.68;100.00;98577.75;6209319;23;20201;-85
2023/03/31 07:26:32;;;;;;;2.63;2.20;;;;;;;14.98;100.00;98576.88;6239612;22;20180;-85
2023/03/31 07:28:59;;;;;;;4.03;2.07;;;;;;;15.28;100.00;98568.72;6225571;22;20191;-86
2023/03/31 07:31:26;;;;;;;2.40;2.20;;;;;;;15.77;100.00;98571.47;6209459;22;20200;-85
2023/03/31 07:33:52;;;;;;;3.53;2.57;;;;;;;16.16;100.00;98552.59;6202970;22;20171;-84
2023/03/31 07:36:19;;;;;;;2.87;2.20;;;;;;;16.51;97.67;98550.69;6202936;22;20507;-84
2023/03/31 07:38:48;;;;;;;3.30;2.50;;;;;;;16.63;96.79;98540.34;6203351;22;20171;-84
2023/03/31 07:41:18;;;;;;;3.07;2.20;;;;;;;16.87;95.21;98535.78;6202930;22;20270;-83
2023/03/31 07:43:45;;;;;;;2.23;2.03;;;;;;;16.99;92.92;98535.38;6227810;22;20611;-84
2023/03/31 07:46:23;;;;;;;2.93;2.20;;;;;;;17.12;91.22;98530.06;6203036;22;20164;-83
2023/03/31 07:48:52;;;;;;;2.90;2.20;;;;;;;17.36;90.14;98524.63;6202909;22;20226;-84
2023/03/31 07:51:21;;;;;;;3.00;2.50;;;;;;;17.72;87.71;98525.03;6202736;22;20168;-83
2023/03/31 07:53:48;;;;;;;4.20;2.30;;;;;;;18.19;85.85;98523.22;6202869;22;20179;-83
2023/03/31 07:56:15;;;;;;;4.37;2.23;;;;;;;18.57;83.60;98513.13;6202815;22;20203;-82
2023/03/31 07:58:43;;;;;;;3.73;2.53;;;;;;;18.75;82.78;98523.09;6227431;22;20212;-83
2023/03/31 08:01:16;;;;;;;4.13;2.40;;;;;;;18.83;81.98;98517.78;6227712;22;20615;-83
2023/03/31 08:03:45;;;;;;;2.60;2.40;;;;;;;18.97;77.70;98508.84;6227550;22;20183;-82
2023/03/31 08:06:17;;;;;;;3.53;2.37;;;;;;;19.19;76.17;98503.50;6228071;22;20172;-83
2023/03/31 08:08:44;;;;;;;4.30;2.43;;;;;;;19.30;75.11;98492.16;6202441;22;20271;-83
2023/03/31 08:11:11;;;;;;;2.30;2.10;;;;;;;19.36;73.04;98484.72;6202698;22;20196;-83
2023/03/31 08:13:37;;;;;;;2.70;2.50;;;;;;;19.49;71.06;98483.91;6202430;22;20175;-83
2023/03/31 08:16:04;;;;;;;3.10;2.40;;;;;;;19.65;70.82;98477.00;6202378;22;20611;-84
2023/03/31 08:18:32;;;;;;;2.97;2.50;;;;;;;19.83;70.37;98474.44;6227256;22;20175;-83
2023/03/31 08:20:58;;;;;;;3.50;2.43;;;;;;;19.85;69.74;98475.75;6202179;22;20177;-83
2023/03/31 08:23:25;;;;;;;2.57;2.30;;;;;;;19.72;68.67;98471.16;6226845;22;20169;-86
2023/03/31 08:25:52;;;;;;;3.37;2.30;;;;;;;19.68;68.24;98456.59;6226811;22;20173;-83
2023/03/31 08:28:19;;;;;;;3.57;2.40;;;;;;;19.69;67.81;98458.97;6251467;22;20214;-84
2023/03/31 08:30:46;;;;;;;2.70;2.47;;;;;;;19.65;68.52;98454.47;6205397;22;20204;-84
2023/03/31 08:33:13;;;;;;;2.70;2.40;;;;;;;19.65;68.14;98451.75;6231065;22;20171;-83
2023/03/31 08:35:39;;;;;;;5.40;2.90;;;;;;;19.60;67.78;98444.50;6256173;22;20216;-83
2023/03/31 08:38:06;;;;;;;3.60;2.57;;;;;;;19.53;67.91;98451.50;6230747;22;20166;-84
2023/03/31 08:40:33;;;;;;;2.87;2.67;;;;;;;19.41;68.25;98451.19;6255788;22;20612;-83
2023/03/31 08:43:18;;;;;;;3.53;2.50;;;;;;;19.29;68.60;98441.66;6230487;22;20214;-83
2023/03/31 08:45:46;;;;;;;4.03;2.90;;;;;;;19.31;68.40;98428.59;6230207;22;20160;-82
2023/03/31 08:48:37;;;;;;;2.73;2.50;;;;;;;19.30;68.17;98429.69;6230253;22;20276;-83
2023/03/31 08:51:13;;;;;;;2.70;2.50;;;;;;;19.40;68.11;98422.44;6230974;22;20160;-83
2023/03/31 08:53:43;;;;;;;3.90;3.03;;;;;;;19.42;67.77;98409.31;6230227;22;20165;-83
2023/03/31 08:56:16;;;;;;;3.17;2.97;;;;;;;19.27;67.78;98394.22;6255832;22;20169;-82
2023/03/31 08:58:45;;;;;;;3.30;3.00;;;;;;;19.05;67.54;98392.22;6230928;22;20154;-83
2023/03/31 09:01:28;;;;;;;2.90;2.70;;;;;;;19.08;67.98;98393.53;6230928;22;20164;-83
2023/03/31 09:04:26;;;;;;;2.73;2.40;;;;;;;19.00;67.71;98397.75;6232120;22;20165;-84
2023/03/31 09:07:09;;;;;;;3.40;3.10;;;;;;;18.89;67.88;98389.06;6255985;22;20165;-83
2023/03/31 09:09:37;;;;;;;3.60;3.30;;;;;;;18.82;68.30;98385.13;6256032;22;20633;-83
2023/03/31 09:12:09;;;;;;;3.57;3.27;;;;;;;18.77;68.50;98380.59;6256023;22;20168;-82
2023/03/31 09:15:07;;;;;;;3.30;3.00;;;;;;;18.75;68.86;98373.88;6254162;22;20176;-83
2023/03/31 09:17:43;;;;;;;3.50;3.20;;;;;;;18.68;68.45;98376.19;6256636;22;20188;-82
2023/03/31 09:20:30;;;;;;;4.07;3.30;;;;;;;18.70;67.83;98380.22;6256022;22;20170;-84
2023/03/31 09:23:17;;;;;;;3.37;3.00;;;;;;;18.67;67.76;98374.56;6231510;22;20168;-84
2023/03/31 09:25:45;;;;;;;3.50;2.93;;;;;;;18.64;67.57;98378.72;6229606;22;20168;-83
2023/03/31 09:28:18;;;;;;;3.30;3.00;;;;;;;18.62;67.37;98371.97;6255598;22;20187;-82
2023/03/31 09:30:51;;;;;;;3.13;2.83;;;;;;;18.64;67.72;98365.13;6231092;22;20196;-82
2023/03/31 09:33:27;;;;;;;3.37;2.90;;;;;;;18.75;67.72;98358.41;6231871;22;20184;-83
2023/03/31 09:35:53;;;;;;;3.53;2.90;;;;;;;18.83;67.79;98351.47;6231710;22;20188;-83
2023/03/31 09:38:20;;;;;;;4.40;4.00;;;;;;;19.03;67.05;98337.47;6255669;22;20203;-84
2023/03/31 09:40:47;;;;;;;5.80;5.20;;;;;;;19.23;67.28;98328.03;6255656;22;20610;-83
2023/03/31 09:43:21;;;;;;;3.73;2.87;;;;;;;19.47;66.36;98311.47;6255700;22;20555;-83
2023/03/31 09:45:48;;;;;;;4.33;3.30;;;;;;;19.55;64.60;98310.75;6252844;22;20255;-84
2023/03/31 09:48:35;;;;;;;4.53;3.30;;;;;;;19.52;64.38;98320.28;6259024;22;20799;-82
2023/03/31 09:51:17;;;;;;;3.33;3.00;;;;;;;19.43;64.09;98310.44;6229088;22;20171;-82
2023/03/31 09:53:58;;;;;;;3.60;3.23;;;;;;;19.39;64.07;98302.13;6229618;22;20164;-82
2023/03/31 09:56:52;;;;;;;3.43;2.70;;;;;;;19.34;62.81;98300.34;6231191;22;20191;-84
2023/03/31 09:59:33;;;;;;;2.70;2.50;;;;;;;19.25;61.37;98301.38;6252584;22;20235;-84
2023/03/31 10:02:21;;;;;;;3.23;2.93;;;;;;;19.14;61.79;98303.53;6231508;22;20168;-83
2023/03/31 10:04:48;;;;;;;3.30;3.00;;;;;;;19.16;60.84;98297.78;6256260;22;20190;-83
2023/03/31 10:07:20;;;;;;;3.40;3.10;;;;;;;19.11;60.96;98298.72;6255904;22;20231;-83
2023/03/31 10:09:47;;;;;;;3.17;2.90;;;;;;;19.02;60.86;98300.56;6230195;22;20192;-83
2023/03/31 10:12:25;;;;;;;4.47;2.80;;;;;;;18.92;60.26;98288.03;6254678;22;20174;-83
2023/03/31 10:14:53;;;;;;;3.07;2.77;;;;;;;18.89;60.62;98280.50;6255596;22;20239;-83
2023/03/31 10:17:22;;;;;;;3.50;2.83;;;;;;;18.81;60.71;98269.53;6229521;22;20221;-83
2023/03/31 10:19:53;;;;;;;3.97;2.80;;;;;;;18.84;61.11;98271.66;6227738;22;20172;-85
2023/03/31 10:22:20;;;;;;;2.90;2.70;;;;;;;18.87;61.62;98273.75;6229416;22;20169;-84
2023/03/31 10:24:48;;;;;;;3.40;2.97;;;;;;;19.03;61.25;98274.22;6254254;22;20203;-84
2023/03/31 10:27:27;;;;;;;3.00;2.70;;;;;;;19.10;61.29;98272.69;6280884;22;20156;-83
2023/03/31 10:29:58;;;;;;;3.17;2.80;;;;;;;19.44;60.94;98260.50;6229151;22;20180;-83
2023/03/31 10:32:27;;;;;;;4.17;2.83;;;;;;;19.76;60.40;98258.28;6201949;22;20201;-84
2023/03/31 10:34:56;;;;;;;3.10;2.80;;;;;;;20.13;59.34;98248.84;6224446;22;20175;-83
2023/03/31 10:37:25;;;;;;;4.27;3.00;;;;;;;20.45;58.18;98242.22;6199470;22;20185;-83
2023/03/31 10:40:01;;;;;;;2.97;2.50;;;;;;;20.88;57.34;98236.03;6199332;22;20253;-84
2023/03/31 10:42:27;;;;;;;3.43;2.70;;;;;;;21.20;56.72;98232.84;6199532;22;20175;-84
2023/03/31 10:45:25;;;;;;;3.17;2.87;;;;;;;21.24;55.67;98236.50;6199174;22;20208;-83
2023/03/31 10:48:03;;;;;;;2.77;2.57;;;;;;;21.14;55.83;98233.34;6226306;22;20634;-84
2023/03/31 10:50:35;;;;;;;3.23;2.80;;;;;;;21.02;55.39;98231.22;6199437;22;20195;-83
2023/03/31 10:53:10;;;;;;;3.10;2.70;;;;;;;20.96;55.43;98232.50;6199373;22;20175;-84
2023/03/31 10:55:43;;;;;;;3.63;2.70;;;;;;;20.98;56.00;98236.50;6198967;22;20161;-82
2023/03/31 10:58:31;;;;;;;3.30;2.57;;;;;;;20.75;55.69;98228.81;6224029;22;20174;-85
2023/03/31 11:01:28;;;;;;;2.87;2.50;;;;;;;20.48;55.84;98233.41;6249026;22;20166;-82
2023/03/31 11:04:08;;;;;;;3.47;2.53;;;;;;;20.15;56.72;98235.75;6249017;22;20198;-85
2023/03/31 11:06:48;;;;;;;3.07;2.73;;;;;;;19.85;56.76;98239.28;6198913;22;20199;-82
2023/03/31 11:09:45;;;;;;;2.70;2.50;;;;;;;19.83;57.00;98246.16;6199628;22;20199;-84
2023/03/31 11:12:20;;;;;;;3.40;2.80;;;;;;;19.79;57.04;98237.81;6249281;22;20165;-82
2023/03/31 11:15:15;;;;;;;4.57;2.80;;;;;;;19.70;57.51;98236.97;6199040;22;20673;-83
2023/03/31 11:17:54;;;;;;;3.73;2.87;;;;;;;19.78;57.42;98233.53;6249343;22;20204;-83
2023/03/31 11:20:34;;;;;;;4.47;3.50;;;;;;;19.95;56.67;98230.88;6249270;22;20167;-84
2023/03/31 11:23:22;;;;;;;4.43;3.00;;;;;;;20.08;56.35;98237.28;6199221;22;20160;-83
2023/03/31 11:26:05;;;;;;;4.03;2.97;;;;;;;20.15;56.47;98230.31;6199150;22;20167;-83
2023/03/31 11:28:56;;;;;;;3.87;2.90;;;;;;;20.31;57.15;98236.13;6223605;22;20196;-83
2023/03/31 11:31:36;;;;;;;3.30;2.70;;;;;;;20.46;55.14;98215.81;6236444;22;20307;-82
2023/03/31 11:34:31;;;;;;;3.03;2.73;;;;;;;20.58;54.59;98188.78;6229381;22;20202;-82
2023/03/31 11:37:12;;;;;;;3.93;3.50;;;;;;;20.91;54.58;98176.28;6254124;22;20257;-83
2023/03/31 11:39:53;;;;;;;4.13;3.30;;;;;;;21.25;54.44;98150.16;6229500;22;20157;-83
2023/03/31 11:42:30;;;;;;;4.47;3.60;;;;;;;21.22;55.04;98134.47;6279495;22;20659;-82
2023/03/31 11:45:03;;;;;;;4.90;3.40;;;;;;;21.27;55.20;98124.22;6228968;22;20191;-83
2023/03/31 11:47:33;;;;;;;4.83;3.80;;;;;;;21.12;55.62;98121.97;6229101;22;20163;-83
2023/03/31 11:50:06;;;;;;;3.50;3.20;;;;;;;21.32;55.71;98124.00;6228791;22;20188;-82
2023/03/31 11:52:34;;;;;;;3.17;2.87;;;;;;;21.45;55.42;98122.22;6254190;22;20169;-83
2023/03/31 11:55:14;;;;;;;3.13;2.83;;;;;;;21.28;55.24;98100.47;6236196;22;20220;-82
2023/03/31 11:57:45;;;;;;;2.93;2.63;;;;;;;20.96;55.97;98085.50;6275451;22;20195;-86